Time;durP1;ratioP1;P1;durP2;ratioP2;P2;SDS_P1;SDS_P2;PMS_P1;PMS_P2;Temp;Humidity;BMP_temperature;BMP_pressure;BME280_temperature;BME280_humidity;BME280_pressure;Samples;Min_cycle;Max_cycle;Signal;HPM_P1;HPM_P2
2022/05/02 00:00:14;;;;;;;;;;;;;;;16.00;87.07;99346.19;5065540;28;19962;-45
2022/05/02 00:02:39;;;;;;;;;;;;;;;16.80;87.39;99345.63;5063785;28;20308;-44
2022/05/02 00:05:05;;;;;;;;;;;;;;;16.77;87.88;99344.94;5063334;28;20022;-45
2022/05/02 00:07:30;;;;;;;;;;;;;;;16.85;87.30;99335.81;5062971;28;19939;-43
2022/05/02 00:09:56;;;;;;;;;;;;;;;16.91;87.00;99334.66;5062196;28;19920;-43
2022/05/02 00:12:21;;;;;;;;;;;;;;;17.04;84.41;99329.66;5065466;28;20034;-47
2022/05/02 00:14:46;;;;;;;;;;;;;;;17.03;86.33;99328.81;5066896;28;19924;-44
2022/05/02 00:17:11;;;;;;;;;;;;;;;16.73;85.86;99326.88;5063629;28;19990;-45
2022/05/02 00:19:37;;;;;;;;;;;;;;;16.94;86.11;99329.28;5063807;28;19922;-45
2022/05/02 00:22:02;;;;;;;;;;;;;;;17.01;85.79;99325.44;5061491;28;19921;-44
2022/05/02 00:24:27;;;;;;;;;;;;;;;16.81;85.74;99317.84;5063006;28;20043;-43
2022/05/02 00:26:52;;;;;;;;;;;;;;;16.10;88.40;99314.47;5065487;28;19955;-46
2022/05/02 00:29:18;;;;;;;;;;;;;;;16.36;89.67;99311.50;5065096;28;20011;-44
2022/05/02 00:31:45;;;;;;;;;;;;;;;16.63;88.72;99310.06;5060743;28;19960;-43
2022/05/02 00:34:11;;;;;;;;;;;;;;;16.86;88.11;99315.88;5062935;28;20455;-45
2022/05/02 00:36:36;;;;;;;;;;;;;;;16.81;88.48;99307.44;5062281;28;20007;-47
2022/05/02 00:39:01;;;;;;;;;;;;;;;16.93;88.12;99299.00;5068047;28;19924;-45
2022/05/02 00:41:26;;;;;;;;;;;;;;;16.75;86.82;99305.16;5062995;28;19919;-43
2022/05/02 00:43:53;;;;;;;;;;;;;;;16.12;88.82;99296.19;5063669;28;20803;-44
2022/05/02 00:46:19;;;;;;;;;;;;;;;16.49;89.89;99297.78;5063984;28;19971;-45
2022/05/02 00:48:44;;;;;;;;;;;;;;;16.90;89.59;99299.16;5063783;28;20016;-44
2022/05/02 00:51:10;;;;;;;;;;;;;;;17.05;88.86;99300.94;5064037;28;19920;-44
2022/05/02 00:53:35;;;;;;;;;;;;;;;17.02;88.67;99295.91;5063043;28;19996;-47
2022/05/02 00:56:01;;;;;;;;;;;;;;;17.16;88.77;99297.75;5063082;28;19932;-44
2022/05/02 00:58:26;;;;;;;;;;;;;;;16.80;88.70;99300.56;5063008;28;19963;-44
2022/05/02 01:00:52;;;;;;;;;;;;;;;16.87;88.39;99297.56;5062420;28;20007;-44
2022/05/02 01:03:17;;;;;;;;;;;;;;;17.19;86.89;99297.59;5063778;28;19930;-44
2022/05/02 01:08:28;;;;;;;;;;;;;;;17.12;89.38;99297.06;5060553;28;19928;-46
2022/05/02 01:10:54;;;;;;;;;;;;;;;17.20;89.77;99294.09;5063393;28;19943;-44
2022/05/02 01:13:39;;;;;;;;;;;;;;;17.25;89.47;99291.22;5061167;28;20393;-46
2022/05/02 01:16:08;;;;;;;;;;;;;;;17.29;89.26;99287.53;5061208;28;19978;-44
2022/05/02 01:18:33;;;;;;;;;;;;;;;17.23;89.38;99293.06;5062309;28;19929;-46
2022/05/02 01:20:59;;;;;;;;;;;;;;;16.68;90.65;99286.44;5063229;28;19932;-46
2022/05/02 01:23:24;;;;;;;;;;;;;;;16.43;96.59;99292.06;5063626;28;20019;-44
2022/05/02 01:25:49;;;;;;;;;;;;;;;16.67;93.24;99295.13;5064688;28;20420;-44
2022/05/02 01:28:14;;;;;;;;;;;;;;;17.03;92.77;99292.38;5064371;28;19931;-44
2022/05/02 01:30:39;;;;;;;;;;;;;;;17.13;91.77;99282.31;5062879;28;19920;-44
2022/05/02 01:33:05;;;;;;;;;;;;;;;17.13;91.13;99274.53;5063074;28;19931;-44
2022/05/02 01:35:30;;;;;;;;;;;;;;;16.80;90.23;99272.78;5064711;28;20440;-43
2022/05/02 01:37:55;;;;;;;;;;;;;;;16.41;92.12;99273.09;5065416;28;19924;-44
2022/05/02 01:40:20;;;;;;;;;;;;;;;16.27;93.32;99277.25;5063024;28;19921;-44
2022/05/02 01:42:46;;;;;;;;;;;;;;;16.65;93.83;99276.16;5061352;28;19965;-44
2022/05/02 01:45:11;;;;;;;;;;;;;;;17.14;91.97;99269.22;5063518;28;19971;-44
2022/05/02 01:47:36;;;;;;;;;;;;;;;17.10;91.56;99272.91;5064031;28;19955;-45
2022/05/02 01:50:01;;;;;;;;;;;;;;;17.28;91.04;99270.22;5064617;28;19948;-43
2022/05/02 01:52:27;;;;;;;;;;;;;;;17.08;92.96;99264.38;5060928;28;19959;-48
2022/05/02 01:54:52;;;;;;;;;;;;;;;16.98;93.51;99270.97;5061094;28;19955;-44
2022/05/02 01:57:17;;;;;;;;;;;;;;;16.93;93.74;99265.19;5064780;28;19924;-45
2022/05/02 01:59:42;;;;;;;;;;;;;;;16.95;93.58;99268.53;5064964;28;20001;-43
2022/05/02 02:02:07;;;;;;;;;;;;;;;17.07;94.26;99267.03;5063358;28;19931;-44
2022/05/02 02:07:17;;;;;;;;;;;;;;;16.75;93.80;99260.94;5062105;28;20017;-43
2022/05/02 02:09:44;;;;;;;;;;;;;;;16.89;93.60;99263.66;5059280;28;21377;-44
2022/05/02 02:12:09;;;;;;;;;;;;;;;17.00;92.28;99250.91;5058997;28;19983;-46
2022/05/02 02:14:34;;;;;;;;;;;;;;;16.55;93.21;99264.59;5061608;28;19924;-44
2022/05/02 02:17:00;;;;;;;;;;;;;;;16.81;92.27;99255.41;5063820;28;19924;-48
2022/05/02 02:19:25;;;;;;;;;;;;;;;16.75;93.04;99256.56;5066161;28;19936;-44
2022/05/02 02:21:50;;;;;;;;;;;;;;;16.79;92.48;99260.72;5062549;28;20696;-44
2022/05/02 02:24:15;;;;;;;;;;;;;;;17.03;90.64;99260.31;5066468;28;19916;-44
2022/05/02 02:26:41;;;;;;;;;;;;;;;16.23;95.61;99262.72;5068169;28;19931;-44
2022/05/02 02:29:06;;;;;;;;;;;;;;;16.34;96.56;99262.19;5061620;28;20343;-43
2022/05/02 02:31:31;;;;;;;;;;;;;;;16.35;95.67;99263.00;5064402;28;20003;-46
2022/05/02 02:33:56;;;;;;;;;;;;;;;15.79;99.80;99260.59;5065664;28;20011;-44
2022/05/02 02:36:21;;;;;;;;;;;;;;;15.48;100.00;99256.84;5065800;28;19942;-44
2022/05/02 02:38:47;;;;;;;;;;;;;;;15.99;99.68;99251.00;5064912;28;19924;-45
2022/05/02 02:41:12;;;;;;;;;;;;;;;16.21;98.90;99261.13;5064751;28;19924;-45
2022/05/02 02:43:37;;;;;;;;;;;;;;;16.34;96.96;99258.75;5064135;28;20553;-43
2022/05/02 02:46:02;;;;;;;;;;;;;;;16.37;96.38;99256.81;5065122;28;20000;-44
2022/05/02 02:48:28;;;;;;;;;;;;;;;16.46;95.91;99255.50;5062505;28;19953;-43
2022/05/02 02:50:53;;;;;;;;;;;;;;;16.18;97.47;99251.72;5065495;28;19955;-44
2022/05/02 02:53:18;;;;;;;;;;;;;;;16.16;98.65;99253.56;5063289;28;19962;-45
2022/05/02 02:55:43;;;;;;;;;;;;;;;15.88;97.24;99244.56;5065607;28;19956;-44
2022/05/02 02:58:09;;;;;;;;;;;;;;;15.91;97.13;99243.56;5066377;28;20456;-44
2022/05/02 03:00:34;;;;;;;;;;;;;;;15.59;97.96;99242.53;5063290;28;19920;-43
2022/05/02 03:02:59;;;;;;;;;;;;;;;15.60;100.00;99245.06;5065679;28;20003;-44
2022/05/02 03:08:09;;;;;;;;;;;;;;;15.86;100.00;99236.00;5065478;28;19934;-43
2022/05/02 03:10:34;;;;;;;;;;;;;;;15.96;99.63;99235.53;5063957;28;19935;-44
2022/05/02 03:12:59;;;;;;;;;;;;;;;15.96;99.81;99230.34;5063787;28;19920;-44
2022/05/02 03:15:25;;;;;;;;;;;;;;;16.08;97.81;99227.16;5063697;28;20728;-44
2022/05/02 03:17:50;;;;;;;;;;;;;;;16.05;97.52;99233.31;5064408;28;19923;-44
2022/05/02 03:20:15;;;;;;;;;;;;;;;15.98;97.41;99236.31;5063093;28;20336;-44
2022/05/02 03:22:40;;;;;;;;;;;;;;;15.92;97.39;99228.81;5058693;28;20616;-45
2022/05/02 03:25:06;;;;;;;;;;;;;;;15.87;97.24;99223.84;5063638;28;19932;-43
2022/05/02 03:27:31;;;;;;;;;;;;;;;15.78;97.26;99222.59;5064107;28;19927;-43
2022/05/02 03:29:56;;;;;;;;;;;;;;;15.57;98.73;99227.03;5061115;28;20064;-43
2022/05/02 03:32:22;;;;;;;;;;;;;;;15.78;93.42;99211.31;5064271;28;19960;-43
2022/05/02 03:34:47;;;;;;;;;;;;;;;15.75;96.81;99217.53;5064605;28;19947;-43
2022/05/02 03:37:12;;;;;;;;;;;;;;;15.75;96.69;99214.94;5065309;28;19923;-46
2022/05/02 03:39:37;;;;;;;;;;;;;;;15.67;96.26;99211.84;5065617;28;19917;-43
2022/05/02 03:42:03;;;;;;;;;;;;;;;15.65;95.94;99214.50;5060973;28;20005;-44
2022/05/02 03:44:28;;;;;;;;;;;;;;;15.42;95.95;99209.63;5062283;28;19920;-44
2022/05/02 03:46:53;;;;;;;;;;;;;;;15.23;96.56;99215.66;5062775;28;19916;-45
2022/05/02 03:49:18;;;;;;;;;;;;;;;15.23;97.13;99214.84;5065778;28;20513;-44
2022/05/02 03:51:44;;;;;;;;;;;;;;;15.34;96.46;99207.38;5064642;28;19919;-44
2022/05/02 03:54:09;;;;;;;;;;;;;;;15.28;95.89;99218.06;5063994;28;19970;-44
2022/05/02 03:56:34;;;;;;;;;;;;;;;15.23;96.19;99212.25;5068038;28;20422;-47
2022/05/02 03:59:00;;;;;;;;;;;;;;;15.21;96.06;99207.16;5063054;28;20061;-44
2022/05/02 04:01:25;;;;;;;;;;;;;;;15.16;95.54;99209.09;5065128;28;19935;-44
2022/05/02 04:03:50;;;;;;;;;;;;;;;14.98;94.82;99207.38;5062837;28;20249;-43
2022/05/02 04:06:15;;;;;;;;;;;;;;;15.33;95.23;99207.47;5061759;28;19916;-44
2022/05/02 04:08:41;;;;;;;;;;;;;;;14.57;98.16;99216.16;5064613;28;19958;-43
2022/05/02 04:11:06;;;;;;;;;;;;;;;15.02;98.40;99207.16;5061792;28;19931;-43
2022/05/02 04:13:31;;;;;;;;;;;;;;;15.36;95.14;99215.94;5061859;28;19927;-43
2022/05/02 04:15:56;;;;;;;;;;;;;;;14.83;97.33;99216.72;5063627;28;19920;-42
2022/05/02 04:18:22;;;;;;;;;;;;;;;14.80;99.98;99216.84;5062371;28;19928;-43
2022/05/02 04:20:47;;;;;;;;;;;;;;;14.48;100.00;99220.84;5060025;28;20369;-42
2022/05/02 04:23:12;;;;;;;;;;;;;;;14.98;100.00;99213.38;5061963;28;19920;-46
2022/05/02 04:25:37;;;;;;;;;;;;;;;15.35;97.21;99208.22;5065534;28;20042;-44
2022/05/02 04:28:03;;;;;;;;;;;;;;;15.14;98.56;99212.69;5062757;28;19952;-44
2022/05/02 04:30:28;;;;;;;;;;;;;;;14.93;98.29;99214.53;5061062;28;19920;-43
2022/05/02 04:32:53;;;;;;;;;;;;;;;14.73;98.58;99221.47;5064133;28;20487;-44
2022/05/02 04:35:18;;;;;;;;;;;;;;;14.52;99.91;99219.81;5057821;28;19927;-43
2022/05/02 04:37:44;;;;;;;;;;;;;;;14.71;99.40;99218.13;5059771;28;19924;-43
2022/05/02 04:40:09;;;;;;;;;;;;;;;14.93;98.27;99217.97;5060133;28;19921;-43
2022/05/02 04:42:36;;;;;;;;;;;;;;;14.70;98.56;99216.41;5062274;28;20310;-46
2022/05/02 04:45:01;;;;;;;;;;;;;;;14.87;98.88;99222.59;5046100;28;19915;-43
2022/05/02 04:47:26;;;;;;;;;;;;;;;15.00;99.39;99223.69;5061390;28;19923;-44
2022/05/02 04:49:51;;;;;;;;;;;;;;;15.12;98.64;99222.28;5058473;28;20841;-43
2022/05/02 04:52:17;;;;;;;;;;;;;;;15.25;98.25;99221.63;5061201;28;19977;-45
2022/05/02 04:54:42;;;;;;;;;;;;;;;15.42;98.41;99217.41;5062971;28;19932;-43
2022/05/02 04:57:07;;;;;;;;;;;;;;;15.37;98.61;99215.03;5064102;28;19924;-43
2022/05/02 04:59:32;;;;;;;;;;;;;;;15.60;98.61;99218.25;5061951;28;19924;-44
2022/05/02 05:01:58;;;;;;;;;;;;;;;15.63;98.10;99212.91;5063484;28;19916;-46
2022/05/02 05:04:23;;;;;;;;;;;;;;;15.19;100.00;99226.25;5061539;28;20400;-44
2022/05/02 05:06:48;;;;;;;;;;;;;;;15.54;99.44;99218.56;5064028;28;19917;-43
2022/05/02 05:09:14;;;;;;;;;;;;;;;15.69;98.62;99223.84;5064629;28;19916;-42
2022/05/02 05:11:39;;;;;;;;;;;;;;;15.71;98.27;99215.97;5061561;28;19912;-42
2022/05/02 05:16:58;;;;;;;;;;;;;;;15.80;98.72;99220.72;5065902;28;19981;-44
2022/05/02 05:19:32;;;;;;;;;;;;;;;15.81;98.34;99217.22;5065485;28;19924;-45
2022/05/02 05:22:03;;;;;;;;;;;;;;;15.86;98.31;99220.41;5063098;28;19952;-43
2022/05/02 05:24:47;;;;;;;;;;;;;;;15.99;98.64;99209.44;5068150;28;20002;-44
2022/05/02 05:27:13;;;;;;;;;;;;;;;15.76;99.00;99218.34;5064273;28;20032;-46
2022/05/02 05:29:51;;;;;;;;;;;;;;;15.65;98.31;99211.09;5060679;28;20270;-43
2022/05/02 05:32:35;;;;;;;;;;;;;;;15.45;96.82;99207.69;5059625;28;19942;-43
2022/05/02 05:35:00;;;;;;;;;;;;;;;15.14;100.00;99217.88;5059759;28;19916;-42
2022/05/02 05:37:41;;;;;;;;;;;;;;;15.21;100.00;99219.25;5062528;28;19940;-44
2022/05/02 05:40:19;;;;;;;;;;;;;;;15.85;98.73;99213.56;5061792;28;19969;-43
2022/05/02 05:42:49;;;;;;;;;;;;;;;16.42;96.92;99207.19;5061740;28;20404;-43
2022/05/02 05:45:15;;;;;;;;;;;;;;;16.55;95.96;99197.81;5062900;28;19970;-42
2022/05/02 05:47:40;;;;;;;;;;;;;;;16.38;94.31;99203.91;5063171;28;20300;-44
2022/05/02 05:50:17;;;;;;;;;;;;;;;16.62;95.50;99206.97;5064801;28;19923;-42
2022/05/02 05:52:52;;;;;;;;;;;;;;;16.64;96.49;99212.09;5064444;28;20087;-43
2022/05/02 05:55:37;;;;;;;;;;;;;;;15.51;98.63;99211.78;5068077;28;20483;-46
2022/05/02 05:58:12;;;;;;;;;;;;;;;16.52;100.00;99214.44;5054063;28;19924;-43
2022/05/02 06:00:41;;;;;;;;;;;;;;;16.53;96.90;99204.84;5050117;28;19923;-44
2022/05/02 06:03:07;;;;;;;;;;;;;;;16.83;99.06;99207.63;5083020;28;19916;-45
2022/05/02 06:05:43;;;;;;;;;;;;;;;16.93;97.53;99210.56;5066419;28;19938;-46
2022/05/02 06:08:10;;;;;;;;;;;;;;;17.10;97.23;99200.03;5064980;28;19940;-44
2022/05/02 06:10:35;;;;;;;;;;;;;;;17.31;92.67;99198.00;5066659;28;19917;-44
2022/05/02 06:13:00;;;;;;;;;;;;;;;16.42;97.16;99207.19;5064106;28;19923;-44
2022/05/02 06:18:28;;;;;;;;;;;;;;;16.77;96.78;99212.28;5066330;28;19977;-46
2022/05/02 06:20:53;;;;;;;;;;;;;;;15.93;100.00;99222.72;5066560;28;19936;-44
2022/05/02 06:23:18;;;;;;;;;;;;;;;16.35;100.00;99224.03;5064486;28;19916;-43
2022/05/02 06:25:45;;;;;;;;;;;;;;;17.01;98.42;99216.16;5065468;28;19912;-46
2022/05/02 06:28:10;;;;;;;;;;;;;;;17.53;94.32;99213.22;5065545;28;20495;-45
2022/05/02 06:30:36;;;;;;;;;;;;;;;17.40;92.75;99217.47;5066347;28;19927;-45
2022/05/02 06:33:05;;;;;;;;;;;;;;;17.28;96.37;99219.00;5066614;28;19916;-44
2022/05/02 06:35:32;;;;;;;;;;;;;;;16.97;96.60;99225.09;5064661;28;20348;-44
2022/05/02 06:38:06;;;;;;;;;;;;;;;17.09;99.45;99236.56;5065777;28;19928;-44
2022/05/02 06:40:33;;;;;;;;;;;;;;;17.12;98.65;99233.78;5065738;28;19923;-44
2022/05/02 06:43:01;;;;;;;;;;;;;;;16.74;99.91;99234.09;5064958;28;19916;-44
2022/05/02 06:45:30;;;;;;;;;;;;;;;17.00;100.00;99227.50;5064852;28;19916;-43
2022/05/02 06:48:03;;;;;;;;;;;;;;;16.80;100.00;99227.75;5067028;28;21068;-43
2022/05/02 06:50:29;;;;;;;;;;;;;;;17.49;98.96;99226.53;5064821;28;19916;-43
2022/05/02 06:53:13;;;;;;;;;;;;;;;17.94;95.17;99225.66;5062858;28;19923;-46
2022/05/02 06:55:53;;;;;;;;;;;;;;;18.32;95.07;99227.75;5065242;28;20014;-45
2022/05/02 06:58:41;;;;;;;;;;;;;;;18.18;91.71;99218.16;5066570;28;19927;-43
2022/05/02 07:01:07;;;;;;;;;;;;;;;17.36;99.37;99226.41;5050884;28;19916;-44
2022/05/02 07:03:50;;;;;;;;;;;;;;;17.42;98.72;99228.63;5065598;28;20328;-43
2022/05/02 07:06:29;;;;;;;;;;;;;;;17.73;97.89;99225.13;5063143;28;20654;-43
2022/05/02 07:08:56;;;;;;;;;;;;;;;18.19;95.60;99214.63;5062623;28;19920;-44
2022/05/02 07:11:21;;;;;;;;;;;;;;;18.09;93.80;99215.28;5062468;28;19919;-43
2022/05/02 07:14:02;;;;;;;;;;;;;;;17.72;97.54;99220.00;5065010;28;19916;-43
2022/05/02 07:16:27;;;;;;;;;;;;;;;17.43;100.00;99227.72;5065090;28;20368;-44
2022/05/02 07:18:59;;;;;;;;;;;;;;;18.43;93.91;99219.31;5061978;28;20030;-47
2022/05/02 07:21:43;;;;;;;;;;;;;;;18.50;94.64;99220.59;5064573;28;20434;-44
2022/05/02 07:24:20;;;;;;;;;;;;;;;17.62;97.78;99232.72;5063207;28;19920;-43
2022/05/02 07:26:48;;;;;;;;;;;;;;;17.88;100.00;99230.38;5062167;28;19927;-43
2022/05/02 07:29:13;;;;;;;;;;;;;;;17.49;100.00;99232.59;5062132;28;20432;-43
2022/05/02 07:31:39;;;;;;;;;;;;;;;17.61;99.41;99227.56;5063111;28;19927;-43
2022/05/02 07:34:04;;;;;;;;;;;;;;;17.70;99.35;99221.88;5067254;28;20392;-46
2022/05/02 07:36:31;;;;;;;;;;;;;;;17.94;98.98;99215.22;5062045;28;19916;-44
2022/05/02 07:39:02;;;;;;;;;;;;;;;18.32;99.97;99216.50;5064230;28;19951;-44
2022/05/02 07:41:28;;;;;;;;;;;;;;;18.86;94.92;99211.47;5063826;28;19916;-44
2022/05/02 07:44:06;;;;;;;;;;;;;;;18.95;94.69;99210.03;5066331;28;19917;-45
2022/05/02 07:46:36;;;;;;;;;;;;;;;18.79;91.65;99211.00;5064460;28;19916;-44
2022/05/02 07:49:02;;;;;;;;;;;;;;;18.45;96.64;99211.38;5065279;28;19969;-43
2022/05/02 07:51:27;;;;;;;;;;;;;;;18.97;91.25;99208.16;5068030;28;19916;-48
2022/05/02 07:53:53;;;;;;;;;;;;;;;19.16;94.77;99211.28;5062938;28;19920;-44
2022/05/02 07:56:21;;;;;;;;;;;;;;;18.26;95.74;99217.69;5063305;28;20013;-44
2022/05/02 07:58:47;;;;;;;;;;;;;;;18.92;92.91;99208.44;5062475;28;20375;-45
2022/05/02 08:01:16;;;;;;;;;;;;;;;19.49;86.69;99212.63;5061320;28;19920;-44
2022/05/02 08:03:41;;;;;;;;;;;;;;;19.06;92.69;99215.41;5067984;28;19981;-45
2022/05/02 08:06:11;;;;;;;;;;;;;;;20.72;86.09;99206.16;5062131;28;20749;-46
2022/05/02 08:08:39;;;;;;;;;;;;;;;19.27;86.16;99220.19;5064842;28;19924;-44
2022/05/02 08:11:19;;;;;;;;;;;;;;;20.19;87.71;99212.34;5064676;28;19955;-45
2022/05/02 08:14:00;;;;;;;;;;;;;;;21.60;81.81;99208.53;5065295;28;19982;-45
2022/05/02 08:16:25;;;;;;;;;;;;;;;20.70;85.61;99211.47;5064596;28;19912;-46
2022/05/02 08:18:50;;;;;;;;;;;;;;;19.48;90.58;99213.59;5043749;28;20472;-46
2022/05/02 08:21:34;;;;;;;;;;;;;;;19.33;94.54;99214.56;5064575;28;19960;-44
2022/05/02 08:27:15;;;;;;;;;;;;;;;21.63;79.86;99209.13;5063030;28;19955;-44
2022/05/02 08:29:43;;;;;;;;;;;;;;;20.63;89.44;99224.16;5065054;28;19923;-46
2022/05/02 08:32:10;;;;;;;;;;;;;;;20.24;89.56;99210.25;5063041;28;19923;-44
2022/05/02 08:34:38;;;;;;;;;;;;;;;20.37;85.85;99220.72;5061396;28;20011;-44
2022/05/02 08:37:09;;;;;;;;;;;;;;;20.41;86.81;99216.09;5062130;28;19920;-45
2022/05/02 08:39:44;;;;;;;;;;;;;;;21.77;77.61;99209.91;5060886;28;20273;-45
2022/05/02 08:42:45;;;;;;;;;;;;;;;21.14;86.64;99211.88;5061825;28;19948;-45
2022/05/02 08:45:13;;;;;;;;;;;;;;;20.63;85.32;99208.47;4967859;28;19953;-46
2022/05/02 08:47:41;;;;;;;;;;;;;;;21.38;83.15;99209.25;5042465;28;19939;-47
2022/05/02 08:50:17;;;;;;;;;;;;;;;21.67;81.96;99218.44;5065337;28;20019;-46
2022/05/02 08:52:42;;;;;;;;;;;;;;;20.22;88.78;99213.91;5061179;28;19916;-44
2022/05/02 08:55:10;;;;;;;;;;;;;;;21.76;83.00;99214.31;5063016;28;19923;-47
2022/05/02 08:57:41;;;;;;;;;;;;;;;22.34;77.90;99209.06;5060583;28;20035;-46
2022/05/02 09:00:09;;;;;;;;;;;;;;;23.12;73.23;99204.69;5064762;28;19964;-45
2022/05/02 09:02:53;;;;;;;;;;;;;;;22.36;77.06;99198.47;5062517;28;19922;-48
2022/05/02 09:05:19;;;;;;;;;;;;;;;22.55;71.40;99196.88;5062351;28;19942;-45
2022/05/02 09:07:54;;;;;;;;;;;;;;;21.11;79.22;99202.44;5062719;28;20311;-48
2022/05/02 09:10:25;;;;;;;;;;;;;;;22.02;80.48;99199.22;5065575;28;20050;-45
2022/05/02 09:13:09;;;;;;;;;;;;;;;21.21;79.12;99193.00;5060876;28;19923;-46
2022/05/02 09:15:53;;;;;;;;;;;;;;;22.82;72.35;99193.03;5065317;28;19923;-47
2022/05/02 09:18:34;;;;;;;;;;;;;;;22.16;71.25;99190.28;5066099;28;20010;-45
2022/05/02 09:21:00;;;;;;;;;;;;;;;21.19;80.56;99196.66;5066155;28;19919;-47
2022/05/02 09:23:25;;;;;;;;;;;;;;;21.81;80.09;99195.63;5059230;28;19924;-43
2022/05/02 09:26:05;;;;;;;;;;;;;;;21.03;85.09;99192.53;5062103;28;19916;-45
2022/05/02 09:28:40;;;;;;;;;;;;;;;20.68;88.43;99193.25;5062740;28;20450;-43
2022/05/02 09:31:16;;;;;;;;;;;;;;;22.13;78.10;99180.88;5062527;28;19973;-45
2022/05/02 09:34:00;;;;;;;;;;;;;;;22.33;72.94;99181.16;5064210;28;20380;-44
2022/05/02 09:36:27;;;;;;;;;;;;;;;22.08;70.70;99175.16;5063222;28;19950;-45
2022/05/02 09:39:03;;;;;;;;;;;;;;;21.84;81.29;99179.66;5063609;28;21219;-46
2022/05/02 09:41:36;;;;;;;;;;;;;;;21.19;79.46;99184.41;5060445;28;19940;-45
2022/05/02 09:49:53;;;;;;;;;;;;;;;22.24;78.47;99171.38;5062953;28;20463;-44
2022/05/02 09:52:25;;;;;;;;;;;;;;;23.74;70.48;99168.94;5060589;28;19916;-48
2022/05/02 10:25:32;;;;;;;;;;;;;;;25.90;54.12;99146.41;5060651;28;19994;-44
2022/05/02 10:28:03;;;;;;;;;;;;;;;24.89;52.67;99148.50;5064453;28;19920;-44
2022/05/02 10:30:28;;;;;;;;;;;;;;;23.34;61.90;99146.81;5061833;28;19969;-46
2022/05/02 10:32:56;;;;;;;;;;;;;;;24.91;59.24;99146.59;5059283;28;20015;-47
2022/05/02 10:35:22;;;;;;;;;;;;;;;24.03;58.75;99148.09;5066124;28;20293;-44
2022/05/02 10:37:57;;;;;;;;;;;;;;;24.33;54.67;99143.78;5065738;28;19923;-43
2022/05/02 10:40:38;;;;;;;;;;;;;;;26.43;51.16;99129.09;5066093;28;19923;-44
2022/05/02 10:43:05;;;;;;;;;;;;;;;26.16;48.93;99128.13;5064454;28;19924;-45
2022/05/02 10:45:30;;;;;;;;;;;;;;;25.66;54.16;99125.75;5069696;28;19938;-44
2022/05/02 10:47:55;;;;;;;;;;;;;;;25.41;53.69;99128.03;5064799;28;20519;-45
2022/05/02 10:50:34;;;;;;;;;;;;;;;25.78;54.86;99121.16;5063984;28;19916;-48
2022/05/02 10:53:18;;;;;;;;;;;;;;;25.97;50.37;99125.56;5065706;28;20373;-44
2022/05/02 10:55:43;;;;;;;;;;;;;;;26.16;53.55;99127.28;5065620;28;19966;-44
2022/05/02 10:58:10;;;;;;;;;;;;;;;25.65;52.57;99124.09;5069672;28;19947;-45
2022/05/02 11:00:37;;;;;;;;;;;;;;;25.38;54.51;99115.09;5065726;28;19919;-45
2022/05/02 11:03:21;;;;;;;;;;;;;;;26.81;47.88;99111.38;5058789;28;19920;-45
2022/05/02 11:06:18;;;;;;;;;;;;;;;25.60;53.13;99123.69;5063119;28;19967;-46
2022/05/02 11:08:50;;;;;;;;;;;;;;;27.67;47.00;99100.19;5026205;28;19927;-44
2022/05/02 11:11:28;;;;;;;;;;;;;;;25.14;51.11;99102.34;5063405;28;19931;-45
2022/05/02 11:13:56;;;;;;;;;;;;;;;25.99;52.29;99102.50;5066479;28;20392;-44
2022/05/02 11:16:22;;;;;;;;;;;;;;;26.27;50.21;99096.25;5063476;28;19916;-47
2022/05/02 11:22:20;;;;;;;;;;;;;;;26.04;51.20;99103.69;5068202;28;19993;-47
2022/05/02 11:24:51;;;;;;;;;;;;;;;26.83;45.56;99101.50;5017539;28;20080;-45
2022/05/02 11:27:19;;;;;;;;;;;;;;;26.52;47.54;99099.16;5065704;28;20027;-46
2022/05/02 11:29:48;;;;;;;;;;;;;;;25.90;48.47;99092.81;5066220;28;20124;-45
2022/05/02 11:32:17;;;;;;;;;;;;;;;26.94;46.35;99081.91;5063869;28;19972;-47
2022/05/02 11:34:57;;;;;;;;;;;;;;;28.46;46.84;99088.47;5064334;28;19916;-44
2022/05/02 11:37:38;;;;;;;;;;;;;;;26.95;44.18;99078.31;5065315;28;19917;-44
2022/05/02 11:40:07;;;;;;;;;;;;;;;26.79;43.24;99076.34;5067628;28;19920;-46
2022/05/02 11:42:32;;;;;;;;;;;;;;;26.87;42.90;99079.91;5062043;28;20369;-48
2022/05/02 11:44:58;;;;;;;;;;;;;;;28.72;39.55;99075.13;5064950;28;19917;-38
2022/05/02 11:47:27;;;;;;;;;;;;;;;29.80;42.50;99076.75;5063466;28;19920;-38
2022/05/02 11:49:58;;;;;;;;;;;;;;;26.43;45.03;99078.91;5057718;28;19938;-38
2022/05/02 11:52:28;;;;;;;;;;;;;;;28.24;45.52;99075.84;5060589;28;19927;-38
2022/05/02 11:54:54;;;;;;;;;;;;;;;26.76;43.98;99068.72;5063220;28;20003;-38
2022/05/02 11:57:20;;;;;;;;;;;;;;;28.68;44.27;99068.50;5060495;28;19958;-38
2022/05/02 12:00:00;;;;;;;;;;;;;;;29.12;40.52;99068.22;5064783;28;19928;-38
2022/05/02 12:02:28;;;;;;;;;;;;;;;27.46;41.19;99072.28;5065326;28;19924;-38
2022/05/02 12:04:53;;;;;;;;;;;;;;;25.97;44.71;99067.50;5066207;28;19916;-38
2022/05/02 12:07:19;;;;;;;;;;;;;;;28.82;45.36;99068.84;5062227;28;20005;-38
2022/05/02 12:09:45;;;;;;;;;;;;;;;28.98;40.69;99056.41;5064899;28;20015;-38
2022/05/02 12:12:10;;;;;;;;;;;;;;;28.19;41.82;99067.53;5060338;28;20015;-38
2022/05/02 12:14:35;;;;;;;;;;;;;;;27.62;43.37;99070.69;5061701;28;19952;-38
2022/05/02 12:17:06;;;;;;;;;;;;;;;28.63;41.43;99057.56;5062290;28;21250;-38
2022/05/02 12:19:31;;;;;;;;;;;;;;;27.96;39.86;99057.50;5058122;28;19923;-38
2022/05/02 12:21:57;;;;;;;;;;;;;;;27.54;42.25;99053.81;5059962;28;19923;-38
2022/05/02 12:24:29;;;;;;;;;;;;;;;27.78;43.01;99056.72;5063383;28;19920;-38
2022/05/02 12:26:54;;;;;;;;;;;;;;;27.49;41.84;99039.41;5061809;28;19912;-45
2022/05/02 12:29:20;;;;;;;;;;;;;;;27.53;45.98;99056.63;5063136;28;20277;-44
2022/05/02 12:31:55;;;;;;;;;;;;;;;27.93;39.96;99048.06;5062191;28;19916;-44
2022/05/02 12:34:21;;;;;;;;;;;;;;;29.21;42.62;99047.00;5064024;28;19924;-46
2022/05/02 12:36:47;;;;;;;;;;;;;;;28.61;39.31;99042.84;5062772;28;19916;-44
2022/05/02 12:39:25;;;;;;;;;;;;;;;29.29;41.31;99036.41;5061512;28;19924;-46
2022/05/02 12:41:54;;;;;;;;;;;;;;;29.50;40.01;99034.00;5063595;28;19922;-47
2022/05/02 12:44:20;;;;;;;;;;;;;;;29.06;40.55;99038.84;5061988;28;19916;-45
2022/05/02 12:46:46;;;;;;;;;;;;;;;29.72;37.88;99036.94;5062350;28;19927;-44
2022/05/02 12:49:16;;;;;;;;;;;;;;;29.73;40.31;99039.44;5060263;28;19928;-51
2022/05/02 12:51:48;;;;;;;;;;;;;;;29.09;39.19;99039.38;5060905;28;19923;-45
2022/05/02 12:54:14;;;;;;;;;;;;;;;28.51;37.05;99035.00;5060908;28;20586;-46
2022/05/02 13:02:38;;;;;;;;;;;;;;;28.51;39.42;99033.22;5062869;28;19923;-47
2022/05/02 13:05:08;;;;;;;;;;;;;;;28.82;37.71;99026.44;5042611;28;20371;-44
2022/05/02 13:07:36;;;;;;;;;;;;;;;29.79;39.14;99017.53;5064232;28;19931;-44
2022/05/02 13:10:02;;;;;;;;;;;;;;;30.86;35.59;99016.94;5060810;28;19916;-46
2022/05/02 13:12:27;;;;;;;;;;;;;;;30.60;35.96;99010.09;5063089;28;20537;-45
2022/05/02 13:14:53;;;;;;;;;;;;;;;30.21;35.22;99021.63;5060337;28;19967;-44
2022/05/02 13:17:19;;;;;;;;;;;;;;;30.60;35.64;99018.06;5061412;28;20032;-45
2022/05/02 13:19:44;;;;;;;;;;;;;;;31.25;34.74;99006.06;5064544;28;19924;-45
2022/05/02 13:22:10;;;;;;;;;;;;;;;30.53;36.27;99003.03;5060214;28;20036;-46
2022/05/02 13:24:37;;;;;;;;;;;;;;;30.37;36.09;99007.44;5060558;28;19956;-45
2022/05/02 13:27:21;;;;;;;;;;;;;;;28.36;39.87;99006.50;5060032;28;19997;-45
2022/05/02 13:29:52;;;;;;;;;;;;;;;28.82;39.50;99005.25;5062115;28;19946;-44
2022/05/02 13:32:27;;;;;;;;;;;;;;;28.43;40.67;99005.84;5062940;28;19916;-44
2022/05/02 13:35:00;;;;;;;;;;;;;;;29.64;35.09;98997.16;5062323;28;19939;-48
2022/05/02 13:37:37;;;;;;;;;;;;;;;27.51;40.41;99013.63;5061251;28;19923;-47
2022/05/02 13:40:02;;;;;;;;;;;;;;;28.74;37.61;99001.59;5064407;28;20736;-44
2022/05/02 13:42:38;;;;;;;;;;;;;;;28.46;37.82;98997.56;5062789;28;19968;-44
2022/05/02 13:45:05;;;;;;;;;;;;;;;29.13;37.37;98992.97;5059759;28;19988;-46
2022/05/02 13:47:33;;;;;;;;;;;;;;;27.72;39.10;99002.63;5061785;28;19943;-46
2022/05/02 13:49:59;;;;;;;;;;;;;;;28.35;37.85;98988.94;5057645;28;19920;-44
2022/05/02 13:52:34;;;;;;;;;;;;;;;28.70;36.95;98989.66;5059374;28;20362;-45
2022/05/02 13:55:03;;;;;;;;;;;;;;;28.69;36.39;98988.03;5063338;28;19916;-44